sensor_id;sensor_type;location;lat;lon;timestamp;P1;durP1;ratioP1;P2;durP2;ratioP2
55672;SDS011;41554;45.366;20.400;2022-12-26T00:01:52;34.13;;;20.95;;
55672;SDS011;41554;45.366;20.400;2022-12-26T00:04:19;39.58;;;22.92;;
55672;SDS011;41554;45.366;20.400;2022-12-26T00:06:45;32.22;;;20.88;;
55672;SDS011;41554;45.366;20.400;2022-12-26T00:09:11;30.35;;;22.48;;
55672;SDS011;41554;45.366;20.400;2022-12-26T00:11:37;30.48;;;24.52;;
55672;SDS011;41554;45.366;20.400;2022-12-26T00:14:08;30.58;;;23.17;;
55672;SDS011;41554;45.366;20.400;2022-12-26T00:16:34;36.20;;;21.13;;
55672;SDS011;41554;45.366;20.400;2022-12-26T00:19:00;34.72;;;21.67;;
55672;SDS011;41554;45.366;20.400;2022-12-26T00:21:27;28.33;;;19.77;;
55672;SDS011;41554;45.366;20.400;2022-12-26T00:23:55;33.13;;;19.35;;
55672;SDS011;41554;45.366;20.400;2022-12-26T00:26:22;32.55;;;19.35;;
55672;SDS011;41554;45.366;20.400;2022-12-26T00:28:48;27.67;;;17.90;;
55672;SDS011;41554;45.366;20.400;2022-12-26T00:31:16;32.92;;;17.45;;
55672;SDS011;41554;45.366;20.400;2022-12-26T00:33:42;31.45;;;21.70;;
55672;SDS011;41554;45.366;20.400;2022-12-26T00:36:09;23.55;;;19.45;;
55672;SDS011;41554;45.366;20.400;2022-12-26T00:38:37;30.33;;;21.13;;
55672;SDS011;41554;45.366;20.400;2022-12-26T00:41:03;61.33;;;36.28;;
55672;SDS011;41554;45.366;20.400;2022-12-26T00:43:30;59.38;;;42.13;;
55672;SDS011;41554;45.366;20.400;2022-12-26T00:45:56;53.38;;;36.20;;
55672;SDS011;41554;45.366;20.400;2022-12-26T00:48:22;41.72;;;30.00;;
55672;SDS011;41554;45.366;20.400;2022-12-26T00:50:50;58.83;;;41.22;;
55672;SDS011;41554;45.366;20.400;2022-12-26T00:53:16;33.55;;;20.20;;
55672;SDS011;41554;45.366;20.400;2022-12-26T00:55:43;32.45;;;22.08;;
55672;SDS011;41554;45.366;20.400;2022-12-26T00:58:09;30.15;;;20.17;;
55672;SDS011;41554;45.366;20.400;2022-12-26T01:00:35;30.00;;;20.10;;
55672;SDS011;41554;45.366;20.400;2022-12-26T01:03:01;33.97;;;24.08;;
55672;SDS011;41554;45.366;20.400;2022-12-26T01:05:27;31.58;;;22.38;;
55672;SDS011;41554;45.366;20.400;2022-12-26T01:07:53;27.77;;;20.98;;
55672;SDS011;41554;45.366;20.400;2022-12-26T01:10:19;28.90;;;19.45;;
55672;SDS011;41554;45.366;20.400;2022-12-26T01:12:46;38.20;;;25.73;;
55672;SDS011;41554;45.366;20.400;2022-12-26T01:15:12;28.48;;;19.80;;
55672;SDS011;41554;45.366;20.400;2022-12-26T01:17:38;27.90;;;20.25;;
55672;SDS011;41554;45.366;20.400;2022-12-26T01:20:04;32.28;;;20.55;;
55672;SDS011;41554;45.366;20.400;2022-12-26T01:22:31;34.35;;;26.05;;
55672;SDS011;41554;45.366;20.400;2022-12-26T01:24:57;32.15;;;24.42;;
55672;SDS011;41554;45.366;20.400;2022-12-26T01:27:24;38.75;;;26.02;;
55672;SDS011;41554;45.366;20.400;2022-12-26T01:29:51;34.60;;;24.48;;
55672;SDS011;41554;45.366;20.400;2022-12-26T01:32:18;31.63;;;22.95;;
55672;SDS011;41554;45.366;20.400;2022-12-26T01:34:44;34.72;;;25.08;;
55672;SDS011;41554;45.366;20.400;2022-12-26T01:37:11;38.08;;;25.20;;
55672;SDS011;41554;45.366;20.400;2022-12-26T01:39:38;36.08;;;24.90;;
55672;SDS011;41554;45.366;20.400;2022-12-26T01:42:13;32.90;;;21.45;;
55672;SDS011;41554;45.366;20.400;2022-12-26T01:47:18;38.58;;;27.00;;
55672;SDS011;41554;45.366;20.400;2022-12-26T01:49:46;42.28;;;24.17;;
55672;SDS011;41554;45.366;20.400;2022-12-26T01:52:16;33.42;;;25.08;;
55672;SDS011;41554;45.366;20.400;2022-12-26T01:54:44;27.80;;;20.63;;
55672;SDS011;41554;45.366;20.400;2022-12-26T01:57:12;31.63;;;25.15;;
55672;SDS011;41554;45.366;20.400;2022-12-26T01:59:41;38.03;;;26.02;;
55672;SDS011;41554;45.366;20.400;2022-12-26T02:02:07;28.95;;;23.70;;
55672;SDS011;41554;45.366;20.400;2022-12-26T02:04:35;32.85;;;22.95;;
55672;SDS011;41554;45.366;20.400;2022-12-26T02:07:23;33.55;;;22.70;;
55672;SDS011;41554;45.366;20.400;2022-12-26T02:09:50;38.05;;;25.55;;
55672;SDS011;41554;45.366;20.400;2022-12-26T02:12:22;34.53;;;23.55;;
55672;SDS011;41554;45.366;20.400;2022-12-26T02:14:49;30.77;;;20.77;;
55672;SDS011;41554;45.366;20.400;2022-12-26T02:17:15;34.08;;;25.05;;
55672;SDS011;41554;45.366;20.400;2022-12-26T02:30:32;39.42;;;29.42;;
55672;SDS011;41554;45.366;20.400;2022-12-26T02:35:50;62.53;;;44.63;;
55672;SDS011;41554;45.366;20.400;2022-12-26T02:38:38;68.60;;;44.00;;
55672;SDS011;41554;45.366;20.400;2022-12-26T02:41:12;54.65;;;37.83;;
55672;SDS011;41554;45.366;20.400;2022-12-26T02:46:34;54.88;;;41.50;;
55672;SDS011;41554;45.366;20.400;2022-12-26T02:49:26;45.40;;;28.70;;
55672;SDS011;41554;45.366;20.400;2022-12-26T02:55:58;63.33;;;47.47;;
55672;SDS011;41554;45.366;20.400;2022-12-26T02:58:50;70.85;;;47.70;;
55672;SDS011;41554;45.366;20.400;2022-12-26T03:01:38;50.70;;;41.88;;
55672;SDS011;41554;45.366;20.400;2022-12-26T03:04:26;43.65;;;31.83;;
55672;SDS011;41554;45.366;20.400;2022-12-26T03:07:19;32.67;;;23.23;;
55672;SDS011;41554;45.366;20.400;2022-12-26T03:10:06;30.00;;;24.20;;
55672;SDS011;41554;45.366;20.400;2022-12-26T03:12:58;26.13;;;20.65;;
55672;SDS011;41554;45.366;20.400;2022-12-26T03:15:35;29.23;;;21.75;;
55672;SDS011;41554;45.366;20.400;2022-12-26T03:18:21;27.10;;;21.55;;
55672;SDS011;41554;45.366;20.400;2022-12-26T03:20:47;30.45;;;23.08;;
55672;SDS011;41554;45.366;20.400;2022-12-26T03:23:14;58.05;;;43.90;;
55672;SDS011;41554;45.366;20.400;2022-12-26T03:25:43;39.33;;;30.48;;
55672;SDS011;41554;45.366;20.400;2022-12-26T03:28:31;27.57;;;22.97;;
55672;SDS011;41554;45.366;20.400;2022-12-26T03:30:57;29.25;;;20.38;;
55672;SDS011;41554;45.366;20.400;2022-12-26T03:33:30;25.77;;;21.15;;
55672;SDS011;41554;45.366;20.400;2022-12-26T03:41:43;35.00;;;24.88;;
55672;SDS011;41554;45.366;20.400;2022-12-26T03:45:02;32.42;;;24.15;;
55672;SDS011;41554;45.366;20.400;2022-12-26T03:48:06;37.05;;;29.55;;
55672;SDS011;41554;45.366;20.400;2022-12-26T03:51:06;72.43;;;52.08;;
55672;SDS011;41554;45.366;20.400;2022-12-26T03:54:13;34.95;;;26.70;;
55672;SDS011;41554;45.366;20.400;2022-12-26T03:57:04;31.42;;;21.48;;
55672;SDS011;41554;45.366;20.400;2022-12-26T04:00:01;33.55;;;21.27;;
55672;SDS011;41554;45.366;20.400;2022-12-26T04:02:58;35.97;;;25.33;;
55672;SDS011;41554;45.366;20.400;2022-12-26T04:05:48;31.58;;;22.35;;
55672;SDS011;41554;45.366;20.400;2022-12-26T04:08:56;28.85;;;20.88;;
55672;SDS011;41554;45.366;20.400;2022-12-26T04:11:38;27.83;;;22.75;;
55672;SDS011;41554;45.366;20.400;2022-12-26T04:22:28;52.55;;;37.95;;
55672;SDS011;41554;45.366;20.400;2022-12-26T04:25:20;65.60;;;41.63;;
55672;SDS011;41554;45.366;20.400;2022-12-26T04:28:06;28.88;;;25.17;;
55672;SDS011;41554;45.366;20.400;2022-12-26T04:31:10;33.38;;;21.05;;
55672;SDS011;41554;45.366;20.400;2022-12-26T04:34:04;27.75;;;19.45;;
55672;SDS011;41554;45.366;20.400;2022-12-26T04:36:52;32.22;;;23.33;;
55672;SDS011;41554;45.366;20.400;2022-12-26T04:39:43;37.78;;;20.70;;
55672;SDS011;41554;45.366;20.400;2022-12-26T04:42:31;28.58;;;19.27;;
55672;SDS011;41554;45.366;20.400;2022-12-26T04:45:17;26.90;;;18.23;;
55672;SDS011;41554;45.366;20.400;2022-12-26T04:47:45;28.50;;;21.15;;
55672;SDS011;41554;45.366;20.400;2022-12-26T04:50:29;32.20;;;22.05;;
55672;SDS011;41554;45.366;20.400;2022-12-26T04:52:56;28.23;;;18.98;;
55672;SDS011;41554;45.366;20.400;2022-12-26T04:55:28;26.85;;;19.52;;
55672;SDS011;41554;45.366;20.400;2022-12-26T04:57:55;25.65;;;19.83;;
55672;SDS011;41554;45.366;20.400;2022-12-26T05:00:21;25.02;;;20.08;;
55672;SDS011;41554;45.366;20.400;2022-12-26T05:02:49;25.73;;;19.25;;
55672;SDS011;41554;45.366;20.400;2022-12-26T05:05:37;26.30;;;20.60;;
55672;SDS011;41554;45.366;20.400;2022-12-26T05:08:21;28.40;;;19.00;;
55672;SDS011;41554;45.366;20.400;2022-12-26T05:11:08;34.05;;;22.73;;
55672;SDS011;41554;45.366;20.400;2022-12-26T05:13:34;24.27;;;18.58;;
55672;SDS011;41554;45.366;20.400;2022-12-26T05:16:00;26.92;;;19.77;;
55672;SDS011;41554;45.366;20.400;2022-12-26T05:18:45;26.92;;;20.83;;
55672;SDS011;41554;45.366;20.400;2022-12-26T05:21:29;27.23;;;18.70;;
55672;SDS011;41554;45.366;20.400;2022-12-26T05:24:14;26.63;;;21.50;;
55672;SDS011;41554;45.366;20.400;2022-12-26T05:26:58;27.48;;;20.23;;
55672;SDS011;41554;45.366;20.400;2022-12-26T05:29:43;29.00;;;20.80;;
55672;SDS011;41554;45.366;20.400;2022-12-26T05:32:09;30.00;;;20.88;;
55672;SDS011;41554;45.366;20.400;2022-12-26T05:34:35;25.20;;;20.73;;
55672;SDS011;41554;45.366;20.400;2022-12-26T05:37:01;20.65;;;17.25;;
55672;SDS011;41554;45.366;20.400;2022-12-26T05:39:27;27.85;;;20.75;;
55672;SDS011;41554;45.366;20.400;2022-12-26T05:41:53;36.05;;;20.65;;
55672;SDS011;41554;45.366;20.400;2022-12-26T05:44:20;31.38;;;20.02;;
55672;SDS011;41554;45.366;20.400;2022-12-26T05:46:46;31.35;;;21.70;;
55672;SDS011;41554;45.366;20.400;2022-12-26T05:49:12;34.15;;;19.27;;
55672;SDS011;41554;45.366;20.400;2022-12-26T05:51:38;30.38;;;18.85;;
55672;SDS011;41554;45.366;20.400;2022-12-26T05:54:04;24.13;;;20.27;;
55672;SDS011;41554;45.366;20.400;2022-12-26T05:56:30;26.20;;;19.45;;
55672;SDS011;41554;45.366;20.400;2022-12-26T05:58:57;25.98;;;20.13;;
55672;SDS011;41554;45.366;20.400;2022-12-26T06:01:25;33.17;;;22.10;;
55672;SDS011;41554;45.366;20.400;2022-12-26T06:03:52;34.40;;;16.73;;
55672;SDS011;41554;45.366;20.400;2022-12-26T06:06:19;27.75;;;20.52;;
55672;SDS011;41554;45.366;20.400;2022-12-26T06:08:48;26.83;;;20.85;;
55672;SDS011;41554;45.366;20.400;2022-12-26T06:11:15;23.52;;;18.02;;
55672;SDS011;41554;45.366;20.400;2022-12-26T06:13:42;30.08;;;20.73;;
55672;SDS011;41554;45.366;20.400;2022-12-26T06:16:09;22.77;;;18.25;;
55672;SDS011;41554;45.366;20.400;2022-12-26T06:18:35;25.63;;;18.75;;
55672;SDS011;41554;45.366;20.400;2022-12-26T06:21:03;30.23;;;21.17;;
55672;SDS011;41554;45.366;20.400;2022-12-26T06:23:29;30.33;;;19.35;;
55672;SDS011;41554;45.366;20.400;2022-12-26T06:25:55;32.08;;;19.52;;
55672;SDS011;41554;45.366;20.400;2022-12-26T06:28:22;29.42;;;19.05;;
55672;SDS011;41554;45.366;20.400;2022-12-26T06:30:49;33.92;;;19.48;;
55672;SDS011;41554;45.366;20.400;2022-12-26T06:33:15;24.50;;;20.48;;
55672;SDS011;41554;45.366;20.400;2022-12-26T06:35:41;29.13;;;19.27;;
55672;SDS011;41554;45.366;20.400;2022-12-26T06:38:08;24.17;;;18.58;;
55672;SDS011;41554;45.366;20.400;2022-12-26T06:40:36;28.80;;;20.15;;
55672;SDS011;41554;45.366;20.400;2022-12-26T06:43:03;26.27;;;17.63;;
55672;SDS011;41554;45.366;20.400;2022-12-26T06:45:29;33.13;;;20.23;;
55672;SDS011;41554;45.366;20.400;2022-12-26T06:47:55;32.58;;;20.20;;
55672;SDS011;41554;45.366;20.400;2022-12-26T06:50:21;30.50;;;21.42;;
55672;SDS011;41554;45.366;20.400;2022-12-26T06:52:47;19.27;;;16.80;;
55672;SDS011;41554;45.366;20.400;2022-12-26T06:55:13;24.40;;;17.95;;
55672;SDS011;41554;45.366;20.400;2022-12-26T06:57:39;22.10;;;16.35;;
55672;SDS011;41554;45.366;20.400;2022-12-26T07:00:05;25.70;;;18.65;;
55672;SDS011;41554;45.366;20.400;2022-12-26T07:02:32;30.25;;;20.52;;
55672;SDS011;41554;45.366;20.400;2022-12-26T07:04:58;28.27;;;20.10;;
55672;SDS011;41554;45.366;20.400;2022-12-26T07:07:24;28.88;;;19.13;;
55672;SDS011;41554;45.366;20.400;2022-12-26T07:09:50;26.33;;;19.38;;
55672;SDS011;41554;45.366;20.400;2022-12-26T07:12:16;25.58;;;18.88;;
55672;SDS011;41554;45.366;20.400;2022-12-26T07:14:45;29.88;;;20.83;;
55672;SDS011;41554;45.366;20.400;2022-12-26T07:17:11;27.00;;;18.42;;
55672;SDS011;41554;45.366;20.400;2022-12-26T07:19:37;31.52;;;23.25;;
55672;SDS011;41554;45.366;20.400;2022-12-26T07:22:03;27.55;;;20.10;;
55672;SDS011;41554;45.366;20.400;2022-12-26T07:24:29;36.92;;;21.33;;
55672;SDS011;41554;45.366;20.400;2022-12-26T07:26:55;25.05;;;20.77;;
55672;SDS011;41554;45.366;20.400;2022-12-26T07:29:21;23.65;;;19.88;;
55672;SDS011;41554;45.366;20.400;2022-12-26T07:31:47;24.95;;;18.02;;
55672;SDS011;41554;45.366;20.400;2022-12-26T07:34:13;35.15;;;20.05;;
55672;SDS011;41554;45.366;20.400;2022-12-26T07:36:40;23.92;;;19.33;;
55672;SDS011;41554;45.366;20.400;2022-12-26T07:39:06;33.83;;;19.85;;
55672;SDS011;41554;45.366;20.400;2022-12-26T07:41:32;33.35;;;23.65;;
55672;SDS011;41554;45.366;20.400;2022-12-26T07:44:17;26.42;;;19.55;;
55672;SDS011;41554;45.366;20.400;2022-12-26T07:46:43;25.90;;;20.48;;
55672;SDS011;41554;45.366;20.400;2022-12-26T07:49:10;27.70;;;18.35;;
55672;SDS011;41554;45.366;20.400;2022-12-26T07:51:37;28.75;;;19.23;;
55672;SDS011;41554;45.366;20.400;2022-12-26T07:54:03;27.95;;;18.33;;
55672;SDS011;41554;45.366;20.400;2022-12-26T07:56:30;23.08;;;18.48;;
55672;SDS011;41554;45.366;20.400;2022-12-26T07:58:56;30.17;;;18.05;;
55672;SDS011;41554;45.366;20.400;2022-12-26T08:01:22;25.45;;;19.08;;
55672;SDS011;41554;45.366;20.400;2022-12-26T08:03:49;24.02;;;16.67;;
55672;SDS011;41554;45.366;20.400;2022-12-26T08:06:16;29.73;;;21.13;;
55672;SDS011;41554;45.366;20.400;2022-12-26T08:08:42;30.77;;;19.27;;
55672;SDS011;41554;45.366;20.400;2022-12-26T08:11:09;24.52;;;18.70;;
55672;SDS011;41554;45.366;20.400;2022-12-26T08:13:37;23.17;;;19.58;;
55672;SDS011;41554;45.366;20.400;2022-12-26T08:16:04;22.27;;;17.58;;
55672;SDS011;41554;45.366;20.400;2022-12-26T08:18:30;28.23;;;19.85;;
55672;SDS011;41554;45.366;20.400;2022-12-26T08:20:57;28.90;;;19.25;;
55672;SDS011;41554;45.366;20.400;2022-12-26T08:23:23;26.05;;;20.10;;
55672;SDS011;41554;45.366;20.400;2022-12-26T08:25:49;25.98;;;17.50;;
55672;SDS011;41554;45.366;20.400;2022-12-26T08:28:15;22.08;;;16.20;;
55672;SDS011;41554;45.366;20.400;2022-12-26T08:30:41;29.15;;;20.50;;
55672;SDS011;41554;45.366;20.400;2022-12-26T08:33:08;27.88;;;17.17;;
55672;SDS011;41554;45.366;20.400;2022-12-26T08:35:35;23.83;;;18.13;;
55672;SDS011;41554;45.366;20.400;2022-12-26T08:38:01;25.80;;;17.90;;
55672;SDS011;41554;45.366;20.400;2022-12-26T08:40:27;24.25;;;18.33;;
55672;SDS011;41554;45.366;20.400;2022-12-26T08:42:54;22.48;;;17.65;;
55672;SDS011;41554;45.366;20.400;2022-12-26T08:45:19;27.88;;;16.83;;
55672;SDS011;41554;45.366;20.400;2022-12-26T08:47:45;22.77;;;15.40;;
55672;SDS011;41554;45.366;20.400;2022-12-26T08:50:11;18.85;;;14.43;;
55672;SDS011;41554;45.366;20.400;2022-12-26T08:52:37;26.10;;;18.65;;
55672;SDS011;41554;45.366;20.400;2022-12-26T08:55:02;25.17;;;15.85;;
55672;SDS011;41554;45.366;20.400;2022-12-26T08:57:28;23.83;;;17.48;;
55672;SDS011;41554;45.366;20.400;2022-12-26T08:59:54;27.23;;;17.55;;
55672;SDS011;41554;45.366;20.400;2022-12-26T09:02:20;26.48;;;17.98;;
55672;SDS011;41554;45.366;20.400;2022-12-26T09:04:46;24.77;;;16.98;;
55672;SDS011;41554;45.366;20.400;2022-12-26T09:07:11;23.02;;;16.42;;
55672;SDS011;41554;45.366;20.400;2022-12-26T09:09:37;24.20;;;16.35;;
55672;SDS011;41554;45.366;20.400;2022-12-26T09:12:03;27.70;;;18.88;;
55672;SDS011;41554;45.366;20.400;2022-12-26T09:14:28;26.58;;;18.75;;
55672;SDS011;41554;45.366;20.400;2022-12-26T09:16:54;25.92;;;15.90;;
55672;SDS011;41554;45.366;20.400;2022-12-26T09:19:20;22.83;;;18.70;;
55672;SDS011;41554;45.366;20.400;2022-12-26T09:21:47;29.48;;;20.02;;
55672;SDS011;41554;45.366;20.400;2022-12-26T09:24:14;30.60;;;18.55;;
55672;SDS011;41554;45.366;20.400;2022-12-26T09:26:42;29.45;;;18.73;;
55672;SDS011;41554;45.366;20.400;2022-12-26T09:29:08;21.67;;;16.45;;
55672;SDS011;41554;45.366;20.400;2022-12-26T09:31:35;30.48;;;18.65;;
55672;SDS011;41554;45.366;20.400;2022-12-26T09:34:02;23.50;;;17.65;;
55672;SDS011;41554;45.366;20.400;2022-12-26T09:36:30;21.85;;;17.25;;
55672;SDS011;41554;45.366;20.400;2022-12-26T09:38:58;26.40;;;15.90;;
55672;SDS011;41554;45.366;20.400;2022-12-26T09:46:37;34.45;;;16.75;;
55672;SDS011;41554;45.366;20.400;2022-12-26T09:49:09;19.88;;;15.07;;
55672;SDS011;41554;45.366;20.400;2022-12-26T09:51:36;26.30;;;17.25;;
55672;SDS011;41554;45.366;20.400;2022-12-26T09:54:05;22.05;;;16.85;;
55672;SDS011;41554;45.366;20.400;2022-12-26T09:56:32;17.77;;;14.23;;
55672;SDS011;41554;45.366;20.400;2022-12-26T09:59:04;20.30;;;14.35;;
55672;SDS011;41554;45.366;20.400;2022-12-26T10:01:35;21.15;;;15.35;;
55672;SDS011;41554;45.366;20.400;2022-12-26T10:04:04;28.65;;;16.42;;
55672;SDS011;41554;45.366;20.400;2022-12-26T10:06:42;23.33;;;15.65;;
55672;SDS011;41554;45.366;20.400;2022-12-26T10:25:23;23.23;;;15.63;;
55672;SDS011;41554;45.366;20.400;2022-12-26T10:27:50;24.40;;;16.05;;
55672;SDS011;41554;45.366;20.400;2022-12-26T10:30:29;19.33;;;14.32;;
55672;SDS011;41554;45.366;20.400;2022-12-26T10:32:58;21.00;;;14.55;;
55672;SDS011;41554;45.366;20.400;2022-12-26T10:35:30;28.30;;;18.58;;
55672;SDS011;41554;45.366;20.400;2022-12-26T10:37:58;40.10;;;17.92;;
55672;SDS011;41554;45.366;20.400;2022-12-26T10:40:30;19.17;;;13.57;;
55672;SDS011;41554;45.366;20.400;2022-12-26T10:43:04;19.33;;;16.38;;
55672;SDS011;41554;45.366;20.400;2022-12-26T10:48:02;23.20;;;17.88;;
55672;SDS011;41554;45.366;20.400;2022-12-26T10:50:30;31.33;;;19.63;;
55672;SDS011;41554;45.366;20.400;2022-12-26T10:52:57;34.47;;;20.75;;
55672;SDS011;41554;45.366;20.400;2022-12-26T10:55:30;31.48;;;20.15;;
55672;SDS011;41554;45.366;20.400;2022-12-26T10:58:02;32.40;;;19.58;;
55672;SDS011;41554;45.366;20.400;2022-12-26T11:00:34;29.33;;;19.20;;
55672;SDS011;41554;45.366;20.400;2022-12-26T11:03:02;25.23;;;19.88;;
55672;SDS011;41554;45.366;20.400;2022-12-26T11:05:28;27.23;;;21.35;;
55672;SDS011;41554;45.366;20.400;2022-12-26T11:07:55;34.30;;;19.77;;
55672;SDS011;41554;45.366;20.400;2022-12-26T11:10:23;33.38;;;19.13;;
55672;SDS011;41554;45.366;20.400;2022-12-26T11:12:55;24.15;;;18.98;;
55672;SDS011;41554;45.366;20.400;2022-12-26T11:17:51;30.48;;;20.48;;
55672;SDS011;41554;45.366;20.400;2022-12-26T11:22:50;40.45;;;20.42;;
55672;SDS011;41554;45.366;20.400;2022-12-26T11:25:21;28.35;;;19.88;;
55672;SDS011;41554;45.366;20.400;2022-12-26T11:27:49;38.22;;;23.35;;
55672;SDS011;41554;45.366;20.400;2022-12-26T11:32:42;32.28;;;22.45;;
55672;SDS011;41554;45.366;20.400;2022-12-26T11:35:19;28.95;;;21.17;;
55672;SDS011;41554;45.366;20.400;2022-12-26T11:37:46;26.80;;;19.98;;
55672;SDS011;41554;45.366;20.400;2022-12-26T11:40:19;29.98;;;22.33;;
55672;SDS011;41554;45.366;20.400;2022-12-26T11:43:05;35.40;;;24.85;;
55672;SDS011;41554;45.366;20.400;2022-12-26T11:45:35;33.78;;;25.17;;
55672;SDS011;41554;45.366;20.400;2022-12-26T11:50:29;45.17;;;34.67;;
55672;SDS011;41554;45.366;20.400;2022-12-26T12:03:03;37.10;;;23.70;;
55672;SDS011;41554;45.366;20.400;2022-12-26T12:16:12;46.58;;;33.97;;
55672;SDS011;41554;45.366;20.400;2022-12-26T12:26:03;36.25;;;26.30;;
55672;SDS011;41554;45.366;20.400;2022-12-26T12:34:06;46.13;;;31.23;;
55672;SDS011;41554;45.366;20.400;2022-12-26T12:44:20;68.97;;;48.30;;
55672;SDS011;41554;45.366;20.400;2022-12-26T12:57:04;70.32;;;50.33;;
55672;SDS011;41554;45.366;20.400;2022-12-26T13:02:29;68.47;;;52.22;;
55672;SDS011;41554;45.366;20.400;2022-12-26T13:07:51;72.10;;;54.85;;
55672;SDS011;41554;45.366;20.400;2022-12-26T13:10:22;66.35;;;46.97;;
55672;SDS011;41554;45.366;20.400;2022-12-26T13:12:49;66.68;;;41.60;;
55672;SDS011;41554;45.366;20.400;2022-12-26T13:15:33;52.55;;;36.20;;
55672;SDS011;41554;45.366;20.400;2022-12-26T13:18:05;58.55;;;41.58;;
55672;SDS011;41554;45.366;20.400;2022-12-26T13:26:16;41.67;;;29.42;;
55672;SDS011;41554;45.366;20.400;2022-12-26T13:31:32;67.70;;;47.42;;
55672;SDS011;41554;45.366;20.400;2022-12-26T13:34:00;48.42;;;39.22;;
55672;SDS011;41554;45.366;20.400;2022-12-26T13:36:39;60.05;;;44.70;;
55672;SDS011;41554;45.366;20.400;2022-12-26T13:41:33;51.88;;;37.78;;
55672;SDS011;41554;45.366;20.400;2022-12-26T13:52:21;58.05;;;41.05;;
55672;SDS011;41554;45.366;20.400;2022-12-26T13:59:50;31.90;;;24.85;;
55672;SDS011;41554;45.366;20.400;2022-12-26T14:04:59;34.42;;;22.95;;
55672;SDS011;41554;45.366;20.400;2022-12-26T14:07:41;34.80;;;20.70;;
55672;SDS011;41554;45.366;20.400;2022-12-26T14:10:14;32.40;;;22.63;;
55672;SDS011;41554;45.366;20.400;2022-12-26T14:18:03;57.47;;;27.40;;
55672;SDS011;41554;45.366;20.400;2022-12-26T14:20:38;41.55;;;28.38;;
55672;SDS011;41554;45.366;20.400;2022-12-26T14:28:33;34.90;;;24.50;;
55672;SDS011;41554;45.366;20.400;2022-12-26T14:31:14;29.58;;;21.40;;
55672;SDS011;41554;45.366;20.400;2022-12-26T14:33:50;26.50;;;21.58;;
55672;SDS011;41554;45.366;20.400;2022-12-26T14:36:23;29.13;;;21.95;;
55672;SDS011;41554;45.366;20.400;2022-12-26T14:38:59;31.67;;;23.17;;
55672;SDS011;41554;45.366;20.400;2022-12-26T14:41:28;32.88;;;23.77;;
55672;SDS011;41554;45.366;20.400;2022-12-26T14:46:59;31.25;;;21.98;;
55672;SDS011;41554;45.366;20.400;2022-12-26T14:54:42;38.75;;;27.42;;
55672;SDS011;41554;45.366;20.400;2022-12-26T15:02:41;60.97;;;44.75;;
55672;SDS011;41554;45.366;20.400;2022-12-26T15:05:15;80.30;;;53.38;;
55672;SDS011;41554;45.366;20.400;2022-12-26T15:07:49;62.92;;;40.25;;
55672;SDS011;41554;45.366;20.400;2022-12-26T15:20:53;38.17;;;27.25;;
55672;SDS011;41554;45.366;20.400;2022-12-26T15:33:55;39.72;;;28.05;;
55672;SDS011;41554;45.366;20.400;2022-12-26T15:36:34;35.35;;;26.30;;
55672;SDS011;41554;45.366;20.400;2022-12-26T15:44:48;33.53;;;26.77;;
55672;SDS011;41554;45.366;20.400;2022-12-26T15:47:24;38.05;;;24.55;;
55672;SDS011;41554;45.366;20.400;2022-12-26T16:00:25;65.65;;;47.85;;
55672;SDS011;41554;45.366;20.400;2022-12-26T16:05:43;56.25;;;39.88;;
55672;SDS011;41554;45.366;20.400;2022-12-26T16:10:36;39.67;;;29.38;;
55672;SDS011;41554;45.366;20.400;2022-12-26T16:15:28;35.38;;;26.92;;
55672;SDS011;41554;45.366;20.400;2022-12-26T16:18:19;36.58;;;29.45;;
55672;SDS011;41554;45.366;20.400;2022-12-26T16:20:43;44.47;;;32.28;;
55672;SDS011;41554;45.366;20.400;2022-12-26T16:23:29;50.63;;;32.47;;
55672;SDS011;41554;45.366;20.400;2022-12-26T16:25:57;52.90;;;38.22;;
55672;SDS011;41554;45.366;20.400;2022-12-26T16:28:58;55.03;;;39.13;;
55672;SDS011;41554;45.366;20.400;2022-12-26T16:31:17;61.85;;;41.55;;
55672;SDS011;41554;45.366;20.400;2022-12-26T16:33:44;54.20;;;40.90;;
55672;SDS011;41554;45.366;20.400;2022-12-26T16:36:13;50.80;;;41.15;;
55672;SDS011;41554;45.366;20.400;2022-12-26T16:38:42;72.03;;;51.10;;
55672;SDS011;41554;45.366;20.400;2022-12-26T16:41:19;63.75;;;51.65;;
55672;SDS011;41554;45.366;20.400;2022-12-26T16:43:46;49.10;;;35.58;;
55672;SDS011;41554;45.366;20.400;2022-12-26T16:46:12;68.68;;;49.22;;
55672;SDS011;41554;45.366;20.400;2022-12-26T16:48:39;72.40;;;43.83;;
55672;SDS011;41554;45.366;20.400;2022-12-26T16:51:27;54.78;;;36.50;;
55672;SDS011;41554;45.366;20.400;2022-12-26T16:53:52;48.03;;;32.35;;
55672;SDS011;41554;45.366;20.400;2022-12-26T16:58:56;72.90;;;53.95;;
55672;SDS011;41554;45.366;20.400;2022-12-26T17:01:23;97.75;;;70.50;;
55672;SDS011;41554;45.366;20.400;2022-12-26T17:03:53;75.43;;;54.92;;
55672;SDS011;41554;45.366;20.400;2022-12-26T17:06:22;75.70;;;56.67;;
55672;SDS011;41554;45.366;20.400;2022-12-26T17:08:48;69.25;;;50.90;;
55672;SDS011;41554;45.366;20.400;2022-12-26T17:11:15;56.20;;;40.50;;
55672;SDS011;41554;45.366;20.400;2022-12-26T17:13:46;61.75;;;32.10;;
55672;SDS011;41554;45.366;20.400;2022-12-26T17:16:14;39.13;;;27.92;;
55672;SDS011;41554;45.366;20.400;2022-12-26T17:18:47;52.67;;;31.08;;
55672;SDS011;41554;45.366;20.400;2022-12-26T17:23:40;57.67;;;42.42;;
55672;SDS011;41554;45.366;20.400;2022-12-26T17:28:42;49.67;;;35.45;;
55672;SDS011;41554;45.366;20.400;2022-12-26T17:31:12;54.13;;;31.27;;
55672;SDS011;41554;45.366;20.400;2022-12-26T17:33:41;46.38;;;32.80;;
55672;SDS011;41554;45.366;20.400;2022-12-26T17:36:10;56.13;;;37.97;;
55672;SDS011;41554;45.366;20.400;2022-12-26T17:41:04;53.00;;;39.08;;
55672;SDS011;41554;45.366;20.400;2022-12-26T17:43:35;45.05;;;32.03;;
55672;SDS011;41554;45.366;20.400;2022-12-26T17:46:01;41.30;;;29.33;;
55672;SDS011;41554;45.366;20.400;2022-12-26T17:48:28;45.05;;;31.08;;
55672;SDS011;41554;45.366;20.400;2022-12-26T17:51:00;46.00;;;30.42;;
55672;SDS011;41554;45.366;20.400;2022-12-26T17:53:32;44.58;;;28.92;;
55672;SDS011;41554;45.366;20.400;2022-12-26T17:55:59;38.97;;;31.48;;
55672;SDS011;41554;45.366;20.400;2022-12-26T17:58:26;48.00;;;31.10;;
55672;SDS011;41554;45.366;20.400;2022-12-26T18:00:53;47.20;;;30.85;;
55672;SDS011;41554;45.366;20.400;2022-12-26T18:03:19;41.40;;;30.27;;
55672;SDS011;41554;45.366;20.400;2022-12-26T18:05:45;60.47;;;34.92;;
55672;SDS011;41554;45.366;20.400;2022-12-26T18:08:31;62.08;;;46.13;;
55672;SDS011;41554;45.366;20.400;2022-12-26T18:10:58;67.43;;;50.25;;
55672;SDS011;41554;45.366;20.400;2022-12-26T18:13:24;65.00;;;50.15;;
55672;SDS011;41554;45.366;20.400;2022-12-26T18:15:51;75.15;;;54.15;;
55672;SDS011;41554;45.366;20.400;2022-12-26T18:18:37;74.22;;;54.22;;
55672;SDS011;41554;45.366;20.400;2022-12-26T18:21:04;81.15;;;52.30;;
55672;SDS011;41554;45.366;20.400;2022-12-26T18:23:31;64.75;;;43.10;;
55672;SDS011;41554;45.366;20.400;2022-12-26T18:25:58;60.38;;;39.67;;